Airfield :
LOGIN :

Register | Disclaimer

   EN    FR    IT 

 










Legend :    VFR   Marginal VFR   IFR   Intensive IFR   Very Intensive IFR
Visi :
Ceiling :
>= 8 km
>= 3000ft
5 to 8 km
1000 to 3000 ft
1500m to 5 km
500 to 1000 ft
800 to 1500m
200 to 500 ft
< 800m
< 200 ft
Symbols :   Thunderstorms  Fog  Heavy snow  Heavy precipitations  Wind > 20 kt
SIGMETs :     Misc.  Thunderstorms  Icing  Turbulence  Mountain Waves  Volcanic Ashes







- Airport Elevation : 364 ft
- IATA code : FRA


EDDF - Frankfurt Int.

CURRENT METAR :
  • 201850Z 02005KT 340V050 8000 -SN FEW003 BKN006 01/00 Q0999 R88/2///95 NOSIG

EXPIRED METARs :
  • 201820Z 35004KT 6000 -SN FEW002 BKN005 00/00 Q0999 R88/2///95 NOSIG
  • 201750Z 01003KT 340V060 5000 -SN FEW003 BKN005 01/M00 Q0999 RESN R88/2///95 NOSIG
  • 201720Z 03002KT 4000 SN FEW003 BKN005 00/M00 Q0999 R88/2///95 BECMG 6000 -SN
  • 201650Z VRB01KT 6000 -SN FEW003 BKN005 00/00 Q1000 RESN R88/2///95 TEMPO 4000 BKN004
  • 201620Z 13003KT 6000 SNRA FEW003 BKN005 01/00 Q1000 TEMPO 4000 -SN BKN004

TAF TAF EDDF
Valid from the 20 at 18:00 until the 22 at 00:00 UTC


201700Z 2018/2124 10004KT 9999 BKN012
TEMPO 2018/2024 4000 SNRA BKN008
PROB30
TEMPO 2018/2024 2500 -SN BKN004
BECMG 2020/2022 29008KT
PROB30
TEMPO 2100/2107 4000 BR BKN007
BECMG 2108/2110 SCT030
BECMG 2118/2120 21005KT BKN030
No reported NOTAMs for that airfield.
2 SIGMETs reported for the Langen FIR (EDGG) :
 
Severe turbulence
EDGG SIGMET 4 VALID 201816/202100 EDZF
EDGG LANGEN FIR SEV TURB FCST SW OF LINE N5045 E00800 - N5220 E00705 FL180/300 MOV ENE NC=
Severe turbulence
EDGG SIGMET 3 VALID 201805/202100 EDZF
EDGG LANGEN FIR SEV TURB FCST WI N5048 E00802 - N4755 E00852 - N4736 E00741 - N4900 E00809 - N4911 E00644 - N5025 E00620 - N5025 E00621 - N5048 E00802 FL180/300 MOV ENE NC=



MET'MAP, your aeronautical weather chart ! - Copyright ORBIFLY December 2007 - Disclaimer

ORBIFLY MET'MAP TEAM :

Programming & Development : Alexandra Zaïnal
Concept & Development : Baudouin d'Aumeries
Co-Development & Prog : Marc-Olivier Méhu
Technical & hardware support : Manuel Goepfert

Contact : metmap@orbifly.com




SOURCES & CREDITS :

   NOAA